createdAt,value
2023-05-14T00:02:17.252Z,4.20
2023-05-14T00:04:46.951Z,4.20
2023-05-14T00:07:16.871Z,4.20
2023-05-14T00:09:46.434Z,4.35
2023-05-14T00:12:16.035Z,4.07
2023-05-14T00:14:48.146Z,4.30
2023-05-14T00:17:17.733Z,3.95
2023-05-14T00:19:47.354Z,3.83
2023-05-14T00:22:16.916Z,3.97
2023-05-14T00:24:46.482Z,4.15
2023-05-14T00:27:16.250Z,4.38
2023-05-14T00:29:48.524Z,4.45
2023-05-14T00:32:18.122Z,4.40
2023-05-14T00:34:47.679Z,4.25
2023-05-14T00:37:17.196Z,4.63
2023-05-14T00:39:46.784Z,4.70
2023-05-14T00:42:16.354Z,4.57
2023-05-14T00:44:48.509Z,4.60
2023-05-14T00:47:18.090Z,4.57
2023-05-14T00:49:47.896Z,4.50
2023-05-14T00:52:17.591Z,4.47
2023-05-14T00:54:47.342Z,4.40
2023-05-14T00:57:16.900Z,4.40
2023-05-14T00:59:49.035Z,4.47
2023-05-14T01:02:18.763Z,4.60
2023-05-14T01:04:48.368Z,4.45
2023-05-14T01:07:26.900Z,4.35
2023-05-14T01:09:58.058Z,4.60
2023-05-14T01:12:30.262Z,4.45
2023-05-14T01:15:05.230Z,4.60
2023-05-14T01:17:36.104Z,4.50
2023-05-14T01:20:06.010Z,4.55
2023-05-14T01:22:38.163Z,4.60
2023-05-14T01:25:09.155Z,4.30
2023-05-14T01:27:40.824Z,4.35
2023-05-14T01:30:13.135Z,4.10
2023-05-14T01:32:42.778Z,4.30
2023-05-14T01:35:13.134Z,4.32
2023-05-14T01:37:45.330Z,4.60
2023-05-14T01:40:15.569Z,4.60
2023-05-14T01:42:45.135Z,4.40
2023-05-14T01:45:14.902Z,4.40
2023-05-14T01:47:44.504Z,4.50
2023-05-14T01:50:14.185Z,4.50
2023-05-14T01:52:46.893Z,4.65
2023-05-14T01:55:16.475Z,4.65
2023-05-14T01:57:46.008Z,4.70
2023-05-14T02:00:16.419Z,4.53
2023-05-14T02:02:46.037Z,4.25
2023-05-14T02:05:15.851Z,4.30
2023-05-14T02:07:47.981Z,4.00
2023-05-14T02:10:17.527Z,4.57
2023-05-14T02:12:47.094Z,4.18
2023-05-14T02:15:16.717Z,4.50
2023-05-14T02:17:46.702Z,4.13
2023-05-14T02:20:16.783Z,4.38
2023-05-14T02:22:48.924Z,4.20
2023-05-14T02:25:19.169Z,4.30
2023-05-14T02:27:49.676Z,4.55
2023-05-14T02:30:19.348Z,4.43
2023-05-14T02:32:48.981Z,4.53
2023-05-14T02:35:18.785Z,4.43
2023-05-14T02:37:50.942Z,4.53
2023-05-14T02:40:20.683Z,4.50
2023-05-14T02:42:50.316Z,4.38
2023-05-14T02:45:20.065Z,4.53
2023-05-14T02:47:49.702Z,4.55
2023-05-14T02:50:19.483Z,4.70
2023-05-14T02:52:51.606Z,4.60
2023-05-14T02:55:21.320Z,4.63
2023-05-14T02:57:52.928Z,4.65
2023-05-14T03:00:22.896Z,5.07
2023-05-14T03:02:53.073Z,5.07
2023-05-14T03:05:23.391Z,4.60
2023-05-14T03:07:55.796Z,4.95
2023-05-14T03:10:25.761Z,5.07
2023-05-14T03:12:55.493Z,4.80
2023-05-14T03:15:25.069Z,5.20
2023-05-14T03:17:54.716Z,4.85
2023-05-14T03:20:26.161Z,5.18
2023-05-14T03:22:58.775Z,5.20
2023-05-14T03:25:28.372Z,5.00
2023-05-14T03:27:57.929Z,5.07
2023-05-14T03:30:27.582Z,5.32
2023-05-14T03:32:57.237Z,4.90
2023-05-14T03:35:26.793Z,5.25
2023-05-14T03:37:59.445Z,5.00
2023-05-14T03:40:29.019Z,5.18
2023-05-14T03:42:58.880Z,4.80
2023-05-14T03:45:28.883Z,5.20
2023-05-14T03:47:58.543Z,5.43
2023-05-14T03:50:28.355Z,5.10
2023-05-14T03:53:00.643Z,5.15
2023-05-14T03:55:30.193Z,4.97
2023-05-14T03:57:59.869Z,4.88
2023-05-14T04:00:29.467Z,4.97
2023-05-14T04:02:59.168Z,5.30
2023-05-14T04:05:28.770Z,5.30
2023-05-14T04:08:01.258Z,5.30
2023-05-14T04:10:30.942Z,5.28
2023-05-14T04:13:00.580Z,5.60
2023-05-14T04:15:30.131Z,5.40
2023-05-14T04:17:59.765Z,5.25
2023-05-14T04:20:29.558Z,5.60
2023-05-14T04:23:01.676Z,6.10
2023-05-14T04:25:31.208Z,5.50
2023-05-14T04:28:00.970Z,5.90
2023-05-14T04:30:30.527Z,5.43
2023-05-14T04:33:00.225Z,5.65
2023-05-14T04:35:29.791Z,5.53
2023-05-14T04:38:01.971Z,5.90
2023-05-14T04:40:31.596Z,6.20
2023-05-14T04:43:01.157Z,5.88
2023-05-14T04:45:33.473Z,6.03
2023-05-14T04:48:03.837Z,7.15
2023-05-14T04:50:33.483Z,6.88
2023-05-14T04:53:05.672Z,7.03
2023-05-14T04:55:35.233Z,7.47
2023-05-14T04:58:05.388Z,7.20
2023-05-14T05:00:35.010Z,7.00
2023-05-14T05:03:05.230Z,7.20
2023-05-14T05:05:35.300Z,7.50
2023-05-14T05:08:07.687Z,7.50
2023-05-14T05:10:37.410Z,7.75
2023-05-14T05:13:06.999Z,7.00
2023-05-14T05:15:36.599Z,6.90
2023-05-14T05:18:06.540Z,6.95
2023-05-14T05:20:36.235Z,7.03
2023-05-14T05:23:08.498Z,6.75
2023-05-14T05:25:38.064Z,6.40
2023-05-14T05:28:07.913Z,6.47
2023-05-14T05:30:37.455Z,6.32
2023-05-14T05:33:07.584Z,6.15
2023-05-14T05:35:37.466Z,6.03
2023-05-14T05:38:09.676Z,6.20
2023-05-14T05:40:39.240Z,5.60
2023-05-14T05:43:08.769Z,5.60
2023-05-14T05:45:38.338Z,5.72
2023-05-14T05:48:08.688Z,5.65
2023-05-14T05:50:38.270Z,5.75
2023-05-14T05:53:10.440Z,5.53
2023-05-14T05:55:40.107Z,5.43
2023-05-14T05:58:09.700Z,5.40
2023-05-14T06:00:39.255Z,4.72
2023-05-14T06:03:08.919Z,5.32
2023-05-14T06:05:38.789Z,5.53
2023-05-14T06:08:10.983Z,5.57
2023-05-14T06:10:40.580Z,5.35
2023-05-14T06:13:10.132Z,5.28
2023-05-14T06:15:39.717Z,5.20
2023-05-14T06:18:09.409Z,5.28
2023-05-14T06:20:39.080Z,4.97
2023-05-14T06:23:12.466Z,5.18
2023-05-14T06:25:42.156Z,4.80
2023-05-14T06:28:11.709Z,5.15
2023-05-14T06:30:41.306Z,5.10
2023-05-14T06:33:13.035Z,4.80
2023-05-14T06:35:42.568Z,4.75
2023-05-14T06:38:14.752Z,4.20
2023-05-14T06:40:44.347Z,4.60
2023-05-14T06:43:13.948Z,4.43
2023-05-14T06:45:43.522Z,4.10
2023-05-14T06:48:13.487Z,4.40
2023-05-14T06:50:43.325Z,4.40
2023-05-14T06:53:15.596Z,4.47
2023-05-14T06:55:45.146Z,4.20
2023-05-14T06:58:14.726Z,4.15
2023-05-14T07:00:44.385Z,4.10
2023-05-14T07:03:13.981Z,4.13
2023-05-14T07:05:45.080Z,4.13
2023-05-14T07:08:17.288Z,4.00
2023-05-14T07:10:46.942Z,4.05
2023-05-14T07:13:16.505Z,4.10
2023-05-14T07:15:46.066Z,4.22
2023-05-14T07:18:15.732Z,4.50
2023-05-14T07:20:45.391Z,4.45
2023-05-14T07:23:19.769Z,4.30
2023-05-14T07:25:49.623Z,4.03
2023-05-14T07:28:19.237Z,4.43
2023-05-14T07:30:48.846Z,4.50
2023-05-14T07:33:18.418Z,4.10
2023-05-14T07:35:47.990Z,4.03
2023-05-14T07:38:20.159Z,4.10
2023-05-14T07:40:49.762Z,3.90
2023-05-14T07:43:19.316Z,4.05
2023-05-14T07:45:48.973Z,4.00
2023-05-14T07:48:18.670Z,3.90
2023-05-14T07:50:48.282Z,3.80
2023-05-14T07:53:20.577Z,4.13
2023-05-14T07:55:50.756Z,3.85
2023-05-14T07:58:20.507Z,4.00
2023-05-14T08:00:50.042Z,3.85
2023-05-14T08:03:19.657Z,3.83
2023-05-14T08:05:49.350Z,3.63
2023-05-14T08:08:21.808Z,3.65
2023-05-14T08:10:51.398Z,3.70
2023-05-14T08:13:21.144Z,3.65
2023-05-14T08:15:50.721Z,3.90
2023-05-14T08:18:20.307Z,3.78
2023-05-14T08:20:49.994Z,3.50
2023-05-14T08:23:22.682Z,3.60
2023-05-14T08:25:52.264Z,3.20
2023-05-14T08:28:21.986Z,3.40
2023-05-14T08:30:51.716Z,3.45
2023-05-14T08:33:21.338Z,3.40
2023-05-14T08:35:51.026Z,3.20
2023-05-14T08:38:26.671Z,3.35
2023-05-14T08:40:58.554Z,3.50
2023-05-14T08:43:29.421Z,3.60
2023-05-14T08:48:31.895Z,3.03
2023-05-14T08:51:01.841Z,3.38
2023-05-14T08:53:33.999Z,3.05
2023-05-14T08:56:03.766Z,2.90
2023-05-14T08:58:33.373Z,2.80
2023-05-14T09:01:02.981Z,2.90
2023-05-14T09:03:32.707Z,2.78
2023-05-14T09:06:03.489Z,2.92
2023-05-14T09:08:36.527Z,2.90
2023-05-14T09:11:07.045Z,3.03
2023-05-14T09:13:36.607Z,3.17
2023-05-14T09:16:06.300Z,3.17
2023-05-14T09:18:35.914Z,2.85
2023-05-14T09:21:05.749Z,3.10
2023-05-14T09:23:38.061Z,3.28
2023-05-14T09:26:08.390Z,3.35
2023-05-14T09:28:37.982Z,3.50
2023-05-14T09:31:07.595Z,3.33
2023-05-14T09:33:37.236Z,3.40
2023-05-14T09:36:07.161Z,3.28
2023-05-14T09:38:39.357Z,3.55
2023-05-14T09:41:08.872Z,3.20
2023-05-14T09:43:38.547Z,3.45
2023-05-14T09:46:08.473Z,3.17
2023-05-14T09:48:38.185Z,3.42
2023-05-14T09:51:08.316Z,3.40
2023-05-14T09:53:41.410Z,3.45
2023-05-14T09:56:11.522Z,3.10
2023-05-14T09:58:41.125Z,3.53
2023-05-14T10:01:10.731Z,3.42
2023-05-14T10:03:40.582Z,3.35
2023-05-14T10:06:10.922Z,3.03
2023-05-14T10:08:44.432Z,3.40
2023-05-14T10:11:16.169Z,3.25
2023-05-14T10:13:49.134Z,3.20
2023-05-14T10:16:21.409Z,3.40
2023-05-14T10:18:57.297Z,3.00
2023-05-14T10:21:27.169Z,3.60
2023-05-14T10:23:59.309Z,3.38
2023-05-14T10:26:28.989Z,3.00
2023-05-14T10:28:58.749Z,3.10
2023-05-14T10:31:50.852Z,2.95
2023-05-14T10:34:41.219Z,3.08
2023-05-14T10:37:12.362Z,3.13
2023-05-14T10:39:48.971Z,3.00
2023-05-14T10:42:20.322Z,2.78
2023-05-14T10:44:58.979Z,2.83
2023-05-14T10:47:28.916Z,2.80
2023-05-14T10:49:59.268Z,2.75
2023-05-14T10:52:29.028Z,2.72
2023-05-14T10:55:03.368Z,2.90
2023-05-14T10:57:34.841Z,2.90
2023-05-14T11:02:37.886Z,2.85
2023-05-14T11:05:09.418Z,2.80
2023-05-14T11:07:40.065Z,2.80
2023-05-14T11:10:13.493Z,2.88
2023-05-14T11:12:43.568Z,2.75
2023-05-14T11:15:14.158Z,3.00
2023-05-14T11:17:44.632Z,2.80
2023-05-14T11:20:15.222Z,2.90
2023-05-14T11:22:45.369Z,2.70
2023-05-14T11:25:18.544Z,2.83
2023-05-14T11:27:48.686Z,2.75
2023-05-14T11:30:18.664Z,2.80
2023-05-14T11:32:48.944Z,2.87
2023-05-14T11:35:18.808Z,2.80
2023-05-14T11:37:53.172Z,2.75
2023-05-14T11:40:25.642Z,2.72
2023-05-14T11:42:55.670Z,2.70
2023-05-14T11:45:30.054Z,2.97
2023-05-14T11:47:59.807Z,2.83
2023-05-14T11:50:29.363Z,2.97
2023-05-14T11:52:59.514Z,2.80
2023-05-14T11:55:31.841Z,2.80
2023-05-14T11:58:01.565Z,2.70
2023-05-14T12:00:31.601Z,2.72
2023-05-14T12:03:01.302Z,2.67
2023-05-14T12:05:30.955Z,2.50
2023-05-14T12:08:00.662Z,2.70
2023-05-14T12:10:32.808Z,2.70
2023-05-14T12:13:02.386Z,2.55
2023-05-14T12:15:32.118Z,2.67
2023-05-14T12:18:02.841Z,2.70
2023-05-14T12:23:02.071Z,2.85
2023-05-14T12:25:34.357Z,2.60
2023-05-14T12:28:04.567Z,2.63
2023-05-14T12:30:40.353Z,2.65
2023-05-14T12:33:10.067Z,2.60
2023-05-14T12:35:39.830Z,2.75
2023-05-14T12:38:09.499Z,2.75
2023-05-14T12:40:41.654Z,2.67
2023-05-14T12:43:11.188Z,2.70
2023-05-14T12:45:40.905Z,2.70
2023-05-14T12:48:10.756Z,2.60
2023-05-14T12:50:40.517Z,2.93
2023-05-14T12:53:10.442Z,2.60
2023-05-14T12:55:42.593Z,2.70
2023-05-14T12:58:12.172Z,2.70
2023-05-14T13:00:41.731Z,2.60
2023-05-14T13:03:11.386Z,2.53
2023-05-14T13:05:40.977Z,2.63
2023-05-14T13:08:10.565Z,2.55
2023-05-14T13:10:42.719Z,2.53
2023-05-14T13:23:12.550Z,2.20
2023-05-14T13:28:14.232Z,2.60
2023-05-14T13:53:15.705Z,2.50
2023-05-14T13:55:49.148Z,2.60
2023-05-14T13:58:18.832Z,2.53
2023-05-14T14:00:48.174Z,2.30
2023-05-14T14:03:17.524Z,2.40
2023-05-14T14:05:47.187Z,2.47
2023-05-14T14:08:23.559Z,2.40
2023-05-14T14:10:56.790Z,2.42
2023-05-14T14:13:26.207Z,2.67
2023-05-14T14:15:55.632Z,2.58
2023-05-14T14:18:24.954Z,2.42
2023-05-14T14:20:54.264Z,2.55
2023-05-14T14:23:23.540Z,2.40
2023-05-14T14:25:52.818Z,2.53
2023-05-14T14:28:24.737Z,2.38
2023-05-14T14:30:54.085Z,2.70
2023-05-14T14:33:23.414Z,2.70
2023-05-14T14:35:53.040Z,2.40
2023-05-14T14:38:22.342Z,2.53
2023-05-14T14:43:56.470Z,2.50
2023-05-14T14:46:25.864Z,2.70
2023-05-14T14:48:55.326Z,2.50
2023-05-14T14:51:24.638Z,2.60
2023-05-14T14:53:53.941Z,2.60
2023-05-14T14:56:23.245Z,2.60
2023-05-14T14:58:52.527Z,2.42
2023-05-14T15:01:24.787Z,2.47
2023-05-14T15:03:54.123Z,2.60
2023-05-14T15:06:23.469Z,2.50
2023-05-14T21:15:21.950Z,2.70
2023-05-14T21:17:51.348Z,2.70
2023-05-14T21:20:23.416Z,2.55
2023-05-14T21:22:52.728Z,2.47
2023-05-14T21:25:22.009Z,2.95
2023-05-14T21:27:51.420Z,2.90
2023-05-14T21:30:20.726Z,2.90
2023-05-14T21:32:50.138Z,2.65
2023-05-14T21:35:19.544Z,2.70
2023-05-14T21:38:19.058Z,2.90
2023-05-14T21:40:50.931Z,2.78
2023-05-14T21:43:20.223Z,2.67
2023-05-14T21:45:49.726Z,2.80
2023-05-14T21:48:19.077Z,2.50
2023-05-14T21:50:48.420Z,2.30
2023-05-14T21:53:17.789Z,2.30
2023-05-14T21:55:47.120Z,2.47
2023-05-14T21:58:18.982Z,2.30
2023-05-14T22:00:48.374Z,2.20
2023-05-14T22:03:17.772Z,2.38
2023-05-14T22:05:47.249Z,2.30
2023-05-14T22:08:17.272Z,2.20
2023-05-14T22:10:46.635Z,2.33
2023-05-14T22:13:15.948Z,2.30
2023-05-14T22:15:48.475Z,2.50
2023-05-14T22:18:19.047Z,2.40
2023-05-14T22:20:48.587Z,2.30
2023-05-14T22:23:17.852Z,2.60
2023-05-14T22:25:47.155Z,2.40
2023-05-14T22:28:16.443Z,2.50
2023-05-14T22:30:48.357Z,2.47
2023-05-14T22:33:19.361Z,2.60
2023-05-14T22:38:17.809Z,2.58
2023-05-14T22:40:47.163Z,2.55
2023-05-14T22:43:16.522Z,2.72
2023-05-14T22:45:48.479Z,2.25
2023-05-14T22:48:18.024Z,2.50
2023-05-14T22:50:47.344Z,2.40
2023-05-14T22:53:18.756Z,2.40
2023-05-14T22:55:48.972Z,2.65
2023-05-14T22:58:18.325Z,2.50
2023-05-14T23:00:50.227Z,2.65
2023-05-14T23:03:19.583Z,2.35
2023-05-14T23:05:48.911Z,2.45
2023-05-14T23:08:18.235Z,2.60
2023-05-14T23:10:47.543Z,2.60
2023-05-14T23:13:16.873Z,2.58
2023-05-14T23:15:46.249Z,2.50
2023-05-14T23:18:18.240Z,2.40
2023-05-14T23:20:47.700Z,2.70
2023-05-14T23:23:17.002Z,2.60
2023-05-14T23:25:46.275Z,2.47
2023-05-14T23:28:15.605Z,2.60
2023-05-14T23:30:44.941Z,2.50
2023-05-14T23:33:14.252Z,2.38
2023-05-14T23:35:46.171Z,2.80
2023-05-14T23:38:15.578Z,2.78
2023-05-14T23:40:44.909Z,2.97
2023-05-14T23:43:15.122Z,2.60
2023-05-14T23:45:44.680Z,2.80
2023-05-14T23:48:13.953Z,2.60
2023-05-14T23:50:46.141Z,2.90
2023-05-14T23:53:15.416Z,2.97
2023-05-14T23:55:44.724Z,2.75
2023-05-14T23:58:14.019Z,2.80
